createdAt,value
2018-07-17T06:01:54.908Z,22.8
2018-07-17T06:02:44.610Z,22.9
2018-07-17T06:03:34.993Z,22.8
2018-07-17T06:04:24.765Z,22.8
2018-07-17T06:05:14.842Z,22.7
2018-07-17T06:06:05.165Z,22.8
2018-07-17T06:06:54.948Z,23.1
2018-07-17T06:07:45.009Z,23
2018-07-17T06:08:35.352Z,23.4
2018-07-17T06:09:25.484Z,23.7
2018-07-17T06:10:15.755Z,23.8
2018-07-17T06:11:05.554Z,23.6
2018-07-17T06:11:55.615Z,23.6
2018-07-17T06:12:45.690Z,23.4
2018-07-17T06:13:35.478Z,23.5
2018-07-17T06:14:25.819Z,23.9
2018-07-17T06:15:15.861Z,24.1
2018-07-17T06:16:05.966Z,24.3
2018-07-17T06:16:56.081Z,24.3
2018-07-17T06:17:46.056Z,24.1
2018-07-17T06:18:36.149Z,24
2018-07-17T06:19:25.656Z,23.9
2018-07-17T06:20:16.348Z,24.1
2018-07-17T06:21:06.146Z,24.1
2018-07-17T06:21:56.175Z,23.9
2018-07-17T06:22:46.181Z,23.7
2018-07-17T06:23:36.218Z,23.7
2018-07-17T06:24:26.051Z,24.1
2018-07-17T06:25:16.693Z,24.3
2018-07-17T06:26:06.714Z,24.5
2018-07-17T06:26:56.787Z,24.6
2018-07-17T06:27:46.550Z,24.3
2018-07-17T06:28:36.882Z,24.2
2018-07-17T06:29:26.995Z,24
2018-07-17T06:30:16.738Z,24.3
2018-07-17T06:31:06.837Z,24.4
2018-07-17T06:31:57.137Z,24.4
2018-07-17T06:32:46.915Z,24.4
2018-07-17T06:33:37.348Z,24.1
2018-07-17T06:34:26.545Z,23.9
2018-07-17T06:35:17.439Z,24.3
2018-07-17T06:36:07.211Z,24.4
2018-07-17T06:36:56.990Z,24.3
2018-07-17T06:37:47.408Z,24.5
2018-07-17T06:38:37.749Z,24.5
2018-07-17T06:39:26.896Z,24.4
2018-07-17T06:40:17.522Z,24.4
2018-07-17T06:41:07.595Z,24.5
2018-07-17T06:41:57.649Z,24.4
2018-07-17T06:42:47.982Z,24.4
2018-07-17T06:43:37.811Z,24.5
2018-07-17T06:44:27.613Z,24.5
2018-07-17T06:45:18.213Z,24.4
2018-07-17T06:46:08.241Z,24.3
2018-07-17T06:46:58.032Z,24.3
2018-07-17T06:47:48.374Z,24.3
2018-07-17T06:48:37.906Z,24.2
2018-07-17T06:49:28.488Z,24
2018-07-17T06:50:18.974Z,23.9
2018-07-17T06:51:08.387Z,23.9
2018-07-17T06:51:58.136Z,23.8
2018-07-17T06:52:48.797Z,23.8
2018-07-17T06:53:38.357Z,23.6
2018-07-17T06:54:28.613Z,23.4
2018-07-17T06:55:18.953Z,23.4
2018-07-17T06:56:09.006Z,23.6
2018-07-17T06:56:59.095Z,23.6
2018-07-17T06:57:48.881Z,23.5
2018-07-17T06:58:38.927Z,23.3
2018-07-17T06:59:28.722Z,23.4
2018-07-17T07:00:19.334Z,23.5
2018-07-17T07:01:09.397Z,23.4
2018-07-17T07:01:59.486Z,23.4
2018-07-17T07:02:49.262Z,23.3
2018-07-17T07:03:39.310Z,23.4
2018-07-17T07:04:29.140Z,23.4
2018-07-17T07:05:19.836Z,23.5
2018-07-17T07:06:09.796Z,23.6
2018-07-17T07:06:59.590Z,23.4
2018-07-17T07:07:49.934Z,23.4
2018-07-17T07:08:39.594Z,23.2
2018-07-17T07:09:30.102Z,23.2
2018-07-17T07:10:20.154Z,23.1
2018-07-17T07:11:10.509Z,23.1
2018-07-17T07:12:00.221Z,23.1
2018-07-17T07:12:49.786Z,23.2
2018-07-17T07:13:39.810Z,23.1
2018-07-17T07:14:30.180Z,23.1
2018-07-17T07:15:19.958Z,22.9
2018-07-17T07:16:10.585Z,22.6
2018-07-17T07:17:00.099Z,22.7
2018-07-17T07:17:50.416Z,22.6
2018-07-17T07:18:40.188Z,22.6
2018-07-17T07:19:30.831Z,22.4
2018-07-17T07:20:20.922Z,22.4
2018-07-17T07:21:10.951Z,22.6
2018-07-17T07:22:01.062Z,22.6
2018-07-17T07:22:50.815Z,22.6
2018-07-17T07:23:40.878Z,22.7
2018-07-17T07:24:31.220Z,22.6
2018-07-17T07:25:20.773Z,22.5
2018-07-17T07:26:11.122Z,22.5
2018-07-17T07:27:01.418Z,22.4
2018-07-17T07:27:51.205Z,22.4
2018-07-17T07:28:41.572Z,22.3
2018-07-17T07:29:31.309Z,22.3
2018-07-17T07:30:21.355Z,22.4
2018-07-17T07:31:11.190Z,22.4
2018-07-17T07:32:01.808Z,22.3
2018-07-17T07:32:51.576Z,22.3
2018-07-17T07:33:41.647Z,22.3
2018-07-17T07:34:31.523Z,22.3
2018-07-17T07:35:22.060Z,22.1
2018-07-17T07:36:12.135Z,22.1
2018-07-17T07:37:01.895Z,21.9
2018-07-17T07:37:52.241Z,21.9
2018-07-17T07:38:41.744Z,21.9
2018-07-17T07:39:32.103Z,21.7
2018-07-17T07:40:22.151Z,21.6
2018-07-17T07:41:12.467Z,21.6
2018-07-17T07:42:02.281Z,21.5
2018-07-17T07:42:53.234Z,21.4
2018-07-17T07:43:42.662Z,21.3
2018-07-17T07:44:32.734Z,21.2
2018-07-17T07:45:22.560Z,21.1
2018-07-17T07:46:12.323Z,21
2018-07-17T07:47:02.432Z,20.9
2018-07-17T07:47:53.043Z,20.9
2018-07-17T07:48:42.190Z,20.8
2018-07-17T07:49:33.165Z,20.4
2018-07-17T07:50:22.947Z,20
2018-07-17T07:51:12.972Z,19.7
2018-07-17T07:52:03.315Z,19.4
2018-07-17T07:52:53.085Z,19.1
2018-07-17T07:53:43.438Z,18.8
2018-07-17T07:54:33.534Z,18.8
2018-07-17T07:55:23.342Z,18.6
2018-07-17T07:56:13.627Z,18.5
2018-07-17T07:57:03.432Z,18.4
2018-07-17T07:57:53.764Z,18.3
2018-07-17T07:58:43.545Z,18.3
2018-07-17T07:59:33.882Z,18.2
2018-07-17T08:00:23.398Z,18.1
2018-07-17T08:01:13.479Z,18.1
2018-07-17T08:02:04.080Z,18.1
2018-07-17T08:02:54.153Z,18.1
2018-07-17T08:03:44.744Z,18.2
2018-07-17T08:04:33.703Z,18.1
2018-07-17T08:05:23.770Z,18.1
2018-07-17T08:06:14.542Z,18.3
2018-07-17T08:07:04.194Z,18.1
2018-07-17T08:07:54.511Z,18.1
2018-07-17T08:08:44.601Z,18
2018-07-17T08:09:34.401Z,18.1
2018-07-17T08:10:24.151Z,18
2018-07-17T08:11:14.781Z,18
2018-07-17T08:12:05.268Z,18
2018-07-17T08:12:54.952Z,18
2018-07-17T08:13:44.702Z,17.9
2018-07-17T08:14:34.501Z,18
2018-07-17T08:15:25.093Z,18.1
2018-07-17T08:16:15.190Z,17.9
2018-07-17T08:17:05.243Z,17.9
2018-07-17T08:17:55.299Z,17.9
2018-07-17T08:18:45.068Z,17.9
2018-07-17T08:19:35.408Z,17.9
2018-07-17T08:20:25.225Z,17.9
2018-07-17T08:21:14.989Z,17.9
2018-07-17T08:22:05.605Z,17.9
2018-07-17T08:22:55.408Z,17.9
2018-07-17T08:23:45.464Z,17.9
2018-07-17T08:24:35.816Z,18
2018-07-17T08:25:25.864Z,18
2018-07-17T08:26:15.934Z,18.1
2018-07-17T08:27:06.041Z,18
2018-07-17T08:27:55.761Z,18
2018-07-17T08:28:45.849Z,18.1
2018-07-17T08:29:36.089Z,18.2
2018-07-17T08:30:25.957Z,18.1
2018-07-17T08:31:16.358Z,18.1
2018-07-17T08:32:06.364Z,18.1
2018-07-17T08:32:56.454Z,18.1
2018-07-17T08:33:46.514Z,18.1
2018-07-17T08:34:36.315Z,18.2
2018-07-17T08:35:26.663Z,18.1
2018-07-17T08:36:16.179Z,18.2
2018-07-17T08:37:06.494Z,18.2
2018-07-17T08:37:56.294Z,18.3
2018-07-17T08:38:46.892Z,18.3
2018-07-17T08:39:36.696Z,18.3
2018-07-17T08:40:27.046Z,18.3
2018-07-17T08:41:17.145Z,18.4
2018-07-17T08:42:06.875Z,18.4
2018-07-17T08:42:56.975Z,18.4
2018-07-17T08:43:47.509Z,18.6
2018-07-17T08:45:27.148Z,18.8
2018-07-17T08:47:07.558Z,18.6
2018-07-17T08:47:57.340Z,18.6
2018-07-17T08:49:37.749Z,18.8
2018-07-17T08:50:27.794Z,18.8
2018-07-17T08:51:17.582Z,18.9
2018-07-17T08:52:07.659Z,19.1
2018-07-17T08:52:58.095Z,19.1
2018-07-17T08:53:48.059Z,19.1
2018-07-17T08:54:39.193Z,19.3
2018-07-17T08:55:28.213Z,19.4
2018-07-17T08:56:17.705Z,19.6
2018-07-17T08:57:08.325Z,19.7
2018-07-17T08:57:58.140Z,19.9
2018-07-17T08:58:48.164Z,20
2018-07-17T08:59:38.271Z,20.2
2018-07-17T09:00:28.918Z,20.3
2018-07-17T09:01:18.090Z,20.4
2018-07-17T09:02:08.139Z,20.6
2018-07-17T09:02:57.944Z,20.8
2018-07-17T09:03:48.549Z,20.9
2018-07-17T09:04:38.634Z,21
2018-07-17T09:05:28.953Z,21.1
2018-07-17T09:06:19.029Z,21.2
2018-07-17T09:07:08.811Z,21.3
2018-07-17T09:07:59.151Z,21.4
2018-07-17T09:08:49.201Z,21.6
2018-07-17T09:09:39.279Z,21.8
2018-07-17T09:10:29.075Z,21.9
2018-07-17T09:11:19.396Z,22
2018-07-17T09:12:09.253Z,22
2018-07-17T09:12:59.439Z,22.3
2018-07-17T09:13:49.328Z,22.3
2018-07-17T09:14:39.663Z,22.4
2018-07-17T09:15:29.552Z,22.4
2018-07-17T09:16:19.526Z,22.6
2018-07-17T09:17:09.567Z,22.7
2018-07-17T09:17:59.911Z,22.8
2018-07-17T09:18:50.045Z,22.8
2018-07-17T09:19:40.047Z,22.8
2018-07-17T09:20:29.829Z,23.1
2018-07-17T09:21:20.189Z,23.1
2018-07-17T09:22:10.249Z,22.9
2018-07-17T09:23:00.032Z,23
2018-07-17T09:23:50.387Z,23
2018-07-17T09:24:39.347Z,23.1
2018-07-17T09:25:30.254Z,23.2
2018-07-17T09:26:20.559Z,23.3
2018-07-17T09:27:10.614Z,23.4
2018-07-17T09:28:00.688Z,23.6
2018-07-17T09:28:50.259Z,23.6
2018-07-17T09:29:40.541Z,23.7
2018-07-17T09:30:30.895Z,23.8
2018-07-17T09:31:20.966Z,23.8
2018-07-17T09:32:11.027Z,23.6
2018-07-17T09:33:01.103Z,23.6
2018-07-17T09:33:51.146Z,23.8
2018-07-17T09:34:41.207Z,24.1
2018-07-17T09:35:31.006Z,24.2
2018-07-17T09:36:20.778Z,24.5
2018-07-17T09:37:11.106Z,24.6
2018-07-17T09:38:01.467Z,24.5
2018-07-17T09:38:51.802Z,24.2
2018-07-17T09:39:41.586Z,24.2
2018-07-17T09:40:31.669Z,24
2018-07-17T09:41:21.710Z,23.9
2018-07-17T09:42:11.814Z,24.5
2018-07-17T09:43:01.834Z,25
2018-07-17T09:43:51.916Z,25.4
2018-07-17T09:44:41.990Z,25.6
2018-07-17T09:45:32.057Z,25.3
2018-07-17T09:46:22.124Z,25.4
2018-07-17T09:47:12.232Z,25.8
2018-07-17T09:48:01.689Z,25.6
2018-07-17T09:48:52.054Z,25.9
2018-07-17T09:49:42.084Z,26
2018-07-17T09:50:32.161Z,26.3
2018-07-17T09:51:22.274Z,26.3
2018-07-17T09:52:12.579Z,26.6
2018-07-17T09:53:02.631Z,26.6
2018-07-17T09:53:52.427Z,26.6
2018-07-17T09:54:42.233Z,26.6
2018-07-17T09:55:32.268Z,26.8
2018-07-17T09:56:22.618Z,26.9
2018-07-17T09:57:12.951Z,27.1
2018-07-17T09:58:02.763Z,27.1
2018-07-17T09:58:52.817Z,27
2018-07-17T09:59:42.862Z,26.6
2018-07-17T10:00:33.237Z,26.8
2018-07-17T10:01:23.027Z,26.6
2018-07-17T10:02:13.359Z,26.7
2018-07-17T10:03:03.405Z,26.7
2018-07-17T10:03:53.472Z,26.6
2018-07-17T10:04:43.942Z,25.8
2018-07-17T10:05:33.600Z,25.6
2018-07-17T10:06:23.733Z,25.4
2018-07-17T10:07:13.484Z,25.6
2018-07-17T10:08:03.806Z,25.6
2018-07-17T10:08:53.571Z,25.6
2018-07-17T10:09:43.932Z,25.5
2018-07-17T10:10:33.968Z,25.7
2018-07-17T10:11:24.042Z,25.4
2018-07-17T10:12:14.107Z,25.3
2018-07-17T10:13:04.177Z,24.9
2018-07-17T10:13:54.048Z,24.9
2018-07-17T10:14:44.090Z,24.3
2018-07-17T10:15:33.906Z,24.1
2018-07-17T10:16:24.152Z,24.4
2018-07-17T10:17:14.569Z,24.5
2018-07-17T10:18:04.575Z,24.1
2018-07-17T10:18:54.643Z,23.5
2018-07-17T10:19:44.129Z,23.2
2018-07-17T10:20:34.192Z,22.9
2018-07-17T10:21:24.845Z,22.8
2018-07-17T10:22:14.884Z,22.8
2018-07-17T10:23:04.963Z,22.9
2018-07-17T10:23:54.987Z,22.9
2018-07-17T10:24:45.128Z,22.9
2018-07-17T10:25:35.168Z,23
2018-07-17T10:26:25.788Z,23
2018-07-17T10:27:15.260Z,23.2
2018-07-17T10:28:05.050Z,23.2
2018-07-17T10:28:55.409Z,23.6
2018-07-17T10:29:44.963Z,23.8
2018-07-17T10:30:35.508Z,23.8
2018-07-17T10:31:25.649Z,23.8
2018-07-17T10:32:16.362Z,24.3
2018-07-17T10:33:05.443Z,23.9
2018-07-17T10:33:55.779Z,24
2018-07-17T10:34:45.395Z,24.1
2018-07-17T10:35:35.901Z,24.3
2018-07-17T10:36:25.956Z,24.6
2018-07-17T10:37:16.031Z,24.8
2018-07-17T10:38:06.114Z,24.9
2018-07-17T10:38:56.160Z,24.8
2018-07-17T10:39:46.210Z,24.8
2018-07-17T10:40:36.310Z,24.7
2018-07-17T10:41:26.080Z,24.9
2018-07-17T10:42:16.433Z,24.9
2018-07-17T10:43:06.028Z,24.9
2018-07-17T10:43:56.540Z,24.9
2018-07-17T10:44:46.615Z,25
2018-07-17T10:45:36.399Z,25.3
2018-07-17T10:46:26.761Z,25.4
2018-07-17T10:47:16.820Z,25.6
2018-07-17T10:48:06.868Z,26.1
2018-07-17T10:48:56.921Z,25.8
2018-07-17T10:49:47.022Z,25.3
2018-07-17T10:50:37.063Z,25.2
2018-07-17T10:51:27.128Z,25.4
2018-07-17T10:52:17.190Z,25.4
2018-07-17T10:53:06.985Z,25.5
2018-07-17T10:53:57.057Z,25.7
2018-07-17T10:54:47.395Z,25.9
2018-07-17T10:55:37.182Z,25.8
2018-07-17T10:56:27.541Z,25.8
2018-07-17T10:57:17.315Z,26.2
2018-07-17T10:58:07.635Z,25.8
2018-07-17T10:58:57.718Z,25.3
2018-07-17T10:59:47.758Z,25.4
2018-07-17T11:00:37.538Z,25.4
2018-07-17T11:01:27.640Z,25.9
2018-07-17T11:02:17.953Z,25.7
2018-07-17T11:03:08.057Z,26.1
2018-07-17T11:03:58.082Z,26.9
2018-07-17T11:04:48.165Z,27.3
2018-07-17T11:05:38.263Z,27.4
2018-07-17T11:06:28.259Z,27.4
2018-07-17T11:07:18.365Z,27.7
2018-07-17T11:08:08.420Z,28
2018-07-17T11:08:58.010Z,27.4
2018-07-17T11:09:47.996Z,26.8
2018-07-17T11:10:38.600Z,26.3
2018-07-17T11:11:28.113Z,26.6
2018-07-17T11:12:18.721Z,26.1
2018-07-17T11:13:08.776Z,25.9
2018-07-17T11:13:58.606Z,26.3
2018-07-17T11:14:49.015Z,25.9
2018-07-17T11:15:38.721Z,26
2018-07-17T11:16:28.786Z,25.8
2018-07-17T11:17:19.116Z,25.6
2018-07-17T11:18:09.188Z,26
2018-07-17T11:18:59.273Z,26.3
2018-07-17T11:19:49.346Z,27.1
2018-07-17T11:20:39.378Z,27.7
2018-07-17T11:21:29.455Z,27.9
2018-07-17T11:22:18.963Z,27.9
2018-07-17T11:23:09.301Z,27.7
2018-07-17T11:23:59.383Z,27.4
2018-07-17T11:24:49.720Z,27.2
2018-07-17T11:25:39.028Z,27.1
2018-07-17T11:26:29.844Z,26.9
2018-07-17T11:27:19.344Z,26.8
2018-07-17T11:28:09.693Z,27.3
2018-07-17T11:29:00.032Z,27.6
2018-07-17T11:29:50.139Z,27.3
2018-07-17T11:30:40.171Z,26.6
2018-07-17T11:31:29.961Z,26.6
2018-07-17T11:32:20.018Z,26.7
2018-07-17T11:33:10.084Z,26.9
2018-07-17T11:36:30.638Z,27.4
2018-07-17T11:37:20.673Z,27.2
2018-07-17T11:38:10.283Z,27.3
2018-07-17T11:39:00.805Z,27.1
2018-07-17T11:39:50.859Z,26.9
2018-07-17T11:40:40.419Z,27.1
2018-07-17T11:41:30.438Z,26.4
2018-07-17T11:42:21.076Z,26.3
2018-07-17T11:43:10.858Z,25.9
2018-07-17T11:44:01.209Z,26.1
2018-07-17T11:44:51.246Z,25.6
2018-07-17T11:45:41.345Z,25.5
2018-07-17T11:46:31.384Z,25.9
2018-07-17T11:47:21.177Z,26.2
2018-07-17T11:48:11.507Z,26.2
2018-07-17T11:49:01.590Z,26.5
2018-07-17T11:49:51.373Z,26.7
2018-07-17T11:50:41.778Z,26.3
2018-07-17T11:51:31.780Z,26.6
2018-07-17T11:52:21.564Z,26.6
2018-07-17T11:53:12.097Z,26.7
2018-07-17T11:54:01.719Z,26.4
2018-07-17T11:54:51.778Z,26.6
2018-07-17T11:55:41.000Z,26.9
2018-07-17T11:56:32.184Z,26.4
2018-07-17T11:57:21.959Z,27
2018-07-17T11:58:11.756Z,27.1
2018-07-17T11:59:03.233Z,27.2
2018-07-17T11:59:51.883Z,27.3
2018-07-17T12:00:42.228Z,27.5
2018-07-17T12:01:32.569Z,27.6
2018-07-17T12:02:22.136Z,27.7
2018-07-17T12:03:12.689Z,27
2018-07-17T12:04:02.484Z,26.6
2018-07-17T12:04:52.545Z,26.4
2018-07-17T12:05:42.833Z,25.9
2018-07-17T12:06:32.933Z,25.6
2018-07-17T12:07:23.015Z,25.6
2018-07-17T12:08:12.819Z,25.4
2018-07-17T12:09:03.132Z,25
2018-07-17T12:09:52.678Z,24.9
2018-07-17T12:10:42.433Z,24.9
2018-07-17T12:11:33.068Z,24.6
2018-07-17T12:12:23.550Z,24.4
2018-07-17T12:13:13.438Z,24.3
2018-07-17T12:14:03.238Z,24.3
2018-07-17T12:14:53.575Z,24.3
2018-07-17T12:15:43.672Z,24.4
2018-07-17T12:16:33.437Z,24.4
2018-07-17T12:17:23.762Z,24.5
2018-07-17T12:18:13.281Z,24.6
2018-07-17T12:19:03.931Z,24.4
2018-07-17T12:19:54.342Z,24.4
2018-07-17T12:20:43.758Z,24.4
2018-07-17T12:21:33.822Z,24.6
2018-07-17T12:22:24.179Z,24.7
2018-07-17T12:23:13.684Z,24.6
2018-07-17T12:24:04.033Z,24.6
2018-07-17T12:24:54.368Z,24.8
2018-07-17T12:25:44.410Z,24.8
2018-07-17T12:26:34.480Z,24.7
2018-07-17T12:27:24.283Z,24.7
2018-07-17T12:28:14.343Z,24.6
2018-07-17T12:29:04.696Z,24.6
2018-07-17T12:29:54.502Z,24.6
2018-07-17T12:30:44.816Z,24.6
2018-07-17T12:31:34.876Z,24.3
2018-07-17T12:32:24.668Z,24.4
2018-07-17T12:33:14.721Z,24.3
2018-07-17T12:34:04.816Z,24.3
2018-07-17T12:34:55.545Z,24.4
2018-07-17T12:35:45.217Z,24.3
2018-07-17T12:36:35.347Z,24.2
2018-07-17T12:37:24.822Z,24.3
2018-07-17T12:38:15.466Z,24.4
2018-07-17T12:39:05.536Z,24.4
2018-07-17T12:39:55.263Z,24.3
2018-07-17T12:40:44.749Z,24.3
2018-07-17T12:41:35.642Z,24.3
2018-07-17T12:42:25.168Z,24.2
2018-07-17T12:43:15.250Z,24.3
2018-07-17T12:44:05.591Z,24.3
2018-07-17T12:44:55.369Z,24.3
2018-07-17T12:45:45.686Z,24.2
2018-07-17T12:46:36.085Z,24.2
2018-07-17T12:47:25.833Z,24.1
2018-07-17T12:48:15.923Z,24
2018-07-17T12:49:05.518Z,24
2018-07-17T12:49:56.016Z,24
2018-07-17T12:50:46.376Z,23.8
2018-07-17T12:51:36.412Z,23.9
2018-07-17T12:52:26.215Z,23.9
2018-07-17T12:53:16.549Z,24.1
2018-07-17T12:54:06.344Z,24.4
2018-07-17T12:54:56.150Z,24.5
2018-07-17T12:55:46.771Z,24.6
2018-07-17T12:56:36.815Z,24.6
2018-07-17T12:57:26.944Z,24.8
2018-07-17T12:58:16.983Z,24.8
2018-07-17T12:59:06.444Z,24.8
2018-07-17T12:59:55.978Z,24.9
2018-07-17T13:00:47.187Z,25.1
2018-07-17T13:01:36.967Z,24.9
2018-07-17T13:02:26.999Z,24.9
2018-07-17T13:03:17.344Z,24.9
2018-07-17T13:04:07.132Z,24.6
2018-07-17T13:04:57.479Z,24.4
2018-07-17T13:05:46.976Z,24.1
2018-07-17T13:06:37.050Z,23.9
2018-07-17T13:07:27.701Z,23.8
2018-07-17T13:08:17.450Z,23.8
2018-07-17T13:09:07.542Z,23.9
2018-07-17T13:09:57.871Z,23.9
2018-07-17T13:10:47.923Z,24
2018-07-17T13:11:37.708Z,24.1
2018-07-17T13:12:27.805Z,24.3
2018-07-17T13:13:18.120Z,24.3
2018-07-17T13:14:08.168Z,24.4
2018-07-17T13:14:58.278Z,24.5
2018-07-17T13:15:48.328Z,24.6
2018-07-17T13:16:38.087Z,24.7
2018-07-17T13:17:27.978Z,24.7
2018-07-17T13:18:18.524Z,24.8
2018-07-17T13:19:08.561Z,24.7
2018-07-17T13:19:58.623Z,24.6
2018-07-17T13:20:48.696Z,24.6
2018-07-17T13:21:38.742Z,24.8
2018-07-17T13:22:28.540Z,24.9
2018-07-17T13:23:18.873Z,25.1
2018-07-17T13:24:08.398Z,25.3
2018-07-17T13:24:59.004Z,25.3
2018-07-17T13:25:49.073Z,25.2
2018-07-17T13:26:39.150Z,25.3
2018-07-17T13:27:29.191Z,25.6
2018-07-17T13:28:18.976Z,25.7
2018-07-17T13:29:09.328Z,26.1
2018-07-17T13:29:59.392Z,26.2
2018-07-17T13:30:49.195Z,26.1
2018-07-17T13:31:39.555Z,25.8
2018-07-17T13:32:29.583Z,25.8
2018-07-17T13:33:19.385Z,25.9
2018-07-17T13:34:09.730Z,25.7
2018-07-17T13:34:59.813Z,25.9
2018-07-17T13:35:49.563Z,25.8
2018-07-17T13:36:39.927Z,25.5
2018-07-17T13:37:29.977Z,25.4
2018-07-17T13:38:20.091Z,25.6
2018-07-17T13:39:10.454Z,25.6
2018-07-17T13:39:59.925Z,25.4
2018-07-17T13:40:50.273Z,25.4
2018-07-17T13:41:40.319Z,25.4
2018-07-17T13:42:30.095Z,25.6
2018-07-17T13:43:20.456Z,25.5
2018-07-17T13:44:10.240Z,25.3
2018-07-17T13:45:00.329Z,25.3
2018-07-17T13:45:50.640Z,25.3
2018-07-17T13:46:40.153Z,25.3
2018-07-17T13:47:30.760Z,25.6
2018-07-17T13:48:20.563Z,25.6
2018-07-17T13:49:10.887Z,25.4
2018-07-17T13:50:01.273Z,25.6
2018-07-17T13:50:50.788Z,25.8
2018-07-17T13:51:41.085Z,25.7
2018-07-17T13:52:30.898Z,25.6
2018-07-17T13:53:21.235Z,25.4
2018-07-17T13:54:11.292Z,25.6
2018-07-17T13:55:01.363Z,25.7
2018-07-17T13:55:51.432Z,25.9
2018-07-17T13:56:41.475Z,26.1
2018-07-17T13:57:31.552Z,25.9
2018-07-17T13:58:21.327Z,25.9
2018-07-17T13:59:11.723Z,25.9
2018-07-17T14:00:02.235Z,26
2018-07-17T14:00:51.812Z,26.6
2018-07-17T14:01:41.857Z,27.1
2018-07-17T14:02:32.241Z,27.3
2018-07-17T14:03:21.707Z,27
2018-07-17T14:04:12.083Z,26.8
2018-07-17T14:05:02.135Z,26.7
2018-07-17T14:05:52.197Z,26.5
2018-07-17T14:06:41.966Z,26.2
2018-07-17T14:07:32.328Z,26.1
2018-07-17T14:08:22.369Z,25.9
2018-07-17T14:09:12.141Z,25.9
2018-07-17T14:10:02.245Z,25.8
2018-07-17T14:10:52.570Z,25.9
2018-07-17T14:11:41.804Z,26
2018-07-17T14:12:32.451Z,25.9
2018-07-17T14:13:22.560Z,25.9
2018-07-17T14:14:12.849Z,25.8
2018-07-17T14:15:02.989Z,25.6
2018-07-17T14:15:52.957Z,25.4
2018-07-17T14:16:42.209Z,25.6
2018-07-17T14:17:33.627Z,25.6
2018-07-17T14:18:22.937Z,25.7
2018-07-17T14:19:13.242Z,25.6
2018-07-17T14:20:03.290Z,25.6
2018-07-17T14:20:52.891Z,25.6
2018-07-17T14:21:43.408Z,25.5
2018-07-17T14:22:33.221Z,25.4
2018-07-17T14:23:23.000Z,25.3
2018-07-17T14:24:13.603Z,25.2
2018-07-17T14:25:03.688Z,25.2
2018-07-17T14:25:53.747Z,25.3
2018-07-17T14:26:43.248Z,25.2
2018-07-17T14:27:33.877Z,25.2
2018-07-17T14:28:23.958Z,25.1
2018-07-17T14:29:13.994Z,25.1
2018-07-17T14:30:03.850Z,25.1
2018-07-17T14:30:53.881Z,25.1
2018-07-17T14:31:44.235Z,25
2018-07-17T14:32:34.299Z,24.9
2018-07-17T14:33:24.328Z,24.9
2018-07-17T14:34:14.359Z,24.8
2018-07-17T14:35:04.174Z,24.8
2018-07-17T14:35:54.782Z,24.9
2018-07-17T14:36:44.293Z,24.9
2018-07-17T14:37:34.656Z,24.9
2018-07-17T14:38:24.417Z,24.8
2018-07-17T14:39:14.752Z,24.8
2018-07-17T14:40:04.826Z,24.8
2018-07-17T14:40:54.624Z,24.8
2018-07-17T14:41:44.960Z,24.8
2018-07-17T14:42:34.812Z,24.8
2018-07-17T14:43:25.078Z,24.9
2018-07-17T14:44:14.887Z,24.9
2018-07-17T14:45:04.655Z,25.1
2018-07-17T14:45:55.292Z,25.1
2018-07-17T14:46:45.063Z,25.1
2018-07-17T14:47:35.396Z,25
2018-07-17T14:48:25.953Z,25.1
2018-07-17T14:49:15.592Z,25.1
2018-07-17T14:50:05.627Z,25.2
2018-07-17T14:50:55.391Z,25.3
2018-07-17T14:51:45.510Z,25.5
2018-07-17T14:52:35.530Z,25.4
2018-07-17T14:53:25.889Z,25.3
2018-07-17T14:54:15.729Z,25.1
2018-07-17T14:55:06.016Z,25.1
2018-07-17T14:55:55.780Z,25.2
2018-07-17T14:56:46.211Z,25.1
2018-07-17T14:57:36.209Z,25.1
2018-07-17T14:58:26.244Z,24.9
2018-07-17T14:59:16.343Z,24.8
2018-07-17T15:00:06.414Z,24.8
2018-07-17T15:00:56.440Z,24.6
2018-07-17T15:01:46.490Z,24.5
2018-07-17T15:02:36.644Z,24.4
2018-07-17T15:03:26.356Z,24.4
2018-07-17T15:04:16.712Z,24.4
2018-07-17T15:05:06.761Z,24.4
2018-07-17T15:05:56.831Z,24.5
2018-07-17T15:06:46.892Z,24.5
2018-07-17T15:07:36.395Z,24.6
2018-07-17T15:08:26.594Z,24.6
2018-07-17T15:09:17.085Z,24.6
2018-07-17T15:10:06.880Z,24.5
2018-07-17T15:10:56.935Z,24.4
2018-07-17T15:11:47.280Z,24.4
2018-07-17T15:12:37.410Z,24.4
2018-07-17T15:13:27.418Z,24.4
2018-07-17T15:14:17.473Z,24.3
2018-07-17T15:15:07.262Z,24.2
2018-07-17T15:15:57.576Z,24.3
2018-07-17T15:16:47.688Z,24.1
2018-07-17T15:17:37.729Z,24.1
2018-07-17T15:18:27.833Z,24.1
2018-07-17T15:19:17.611Z,24.1
2018-07-17T15:20:07.921Z,24.2
2018-07-17T15:20:58.018Z,24.3
2018-07-17T15:21:48.123Z,24.3
2018-07-17T15:22:38.125Z,24.3
2018-07-17T15:23:27.397Z,24.3
2018-07-17T15:24:17.999Z,24.3
2018-07-17T15:25:08.325Z,24.3
2018-07-17T15:25:58.109Z,24.3
2018-07-17T15:26:48.170Z,24.1
2018-07-17T15:27:38.316Z,24.1
2018-07-17T15:28:28.034Z,24
2018-07-17T15:29:18.673Z,24
2018-07-17T15:30:08.689Z,23.9
2018-07-17T15:30:58.499Z,23.9
2018-07-17T15:31:48.262Z,24
2018-07-17T15:32:38.878Z,24
2018-07-17T15:33:28.996Z,24.1
2018-07-17T15:34:18.740Z,24.1
2018-07-17T15:35:09.489Z,24.3
2018-07-17T15:35:59.160Z,24.1
2018-07-17T15:36:48.938Z,24.2
2018-07-17T15:37:38.170Z,24.1
2018-07-17T15:38:29.680Z,24.2
2018-07-17T15:39:19.394Z,24.1
2018-07-17T15:40:09.462Z,24.1
2018-07-17T15:40:59.544Z,24.1
2018-07-17T15:41:49.309Z,24.1
2018-07-17T15:42:39.122Z,24.1
2018-07-17T15:43:29.719Z,24.1
2018-07-17T15:44:19.790Z,24.1
2018-07-17T15:45:09.874Z,24.1
2018-07-17T15:45:59.684Z,24.1
2018-07-17T15:46:49.985Z,24
2018-07-17T15:47:40.069Z,23.9
2018-07-17T15:48:29.587Z,23.9
2018-07-17T15:49:19.964Z,23.9
2018-07-17T15:50:10.250Z,23.8
2018-07-17T15:51:00.316Z,23.8
2018-07-17T15:51:50.372Z,23.7
2018-07-17T15:52:40.162Z,23.7
2018-07-17T15:53:30.509Z,23.6
2018-07-17T15:54:20.595Z,23.6
2018-07-17T15:55:10.363Z,23.6
2018-07-17T15:55:59.857Z,23.6
2018-07-17T15:56:50.757Z,23.5
2018-07-17T15:57:40.883Z,23.5
2018-07-17T15:58:30.880Z,23.4
2018-07-17T15:59:20.959Z,23.4
2018-07-17T16:00:11.030Z,23.4
2018-07-17T16:01:01.135Z,23.3
2018-07-17T16:01:50.887Z,23.4
2018-07-17T16:02:41.199Z,23.3
2018-07-17T16:03:31.254Z,23.3
2018-07-17T16:04:21.052Z,23.2
2018-07-17T16:05:11.410Z,23.2
2018-07-17T16:06:01.652Z,23.1
2018-07-17T16:06:51.514Z,23.1
2018-07-17T16:07:41.605Z,23
2018-07-17T16:08:31.655Z,23
2018-07-17T16:09:21.702Z,23
2018-07-17T16:10:12.022Z,22.9
2018-07-17T16:11:01.835Z,22.9
2018-07-17T16:11:51.948Z,22.8
2018-07-17T16:12:41.967Z,22.9
2018-07-17T16:13:33.353Z,22.9
2018-07-17T16:14:26.797Z,22.8
2018-07-17T16:15:12.149Z,22.8
2018-07-17T16:16:01.959Z,22.8
2018-07-17T16:16:52.298Z,22.8
2018-07-17T16:17:42.367Z,22.7
2018-07-17T16:18:32.156Z,22.7
2018-07-17T16:19:22.486Z,22.7
2018-07-17T16:20:12.975Z,22.6
2018-07-17T16:21:02.437Z,22.6
2018-07-17T16:21:52.151Z,22.6
2018-07-17T16:22:42.767Z,22.6
2018-07-17T16:23:32.801Z,22.6
2018-07-17T16:24:22.858Z,22.5
2018-07-17T16:25:12.938Z,22.5
2018-07-17T16:26:02.746Z,22.5
2018-07-17T16:26:52.801Z,22.5
2018-07-17T16:27:42.861Z,22.5
2018-07-17T16:28:32.381Z,22.5
2018-07-17T16:29:22.784Z,22.4
2018-07-17T16:30:13.333Z,22.4
2018-07-17T16:31:03.431Z,22.4
2018-07-17T16:31:53.499Z,22.4
2018-07-17T16:32:43.254Z,22.4
2018-07-17T16:33:33.602Z,22.4
2018-07-17T16:34:23.648Z,22.3
2018-07-17T16:35:13.458Z,22.3
2018-07-17T16:36:03.789Z,22.3
2018-07-17T16:36:53.758Z,22.3
2018-07-17T16:37:43.631Z,22.2
2018-07-17T16:38:33.957Z,22.2
2018-07-17T16:39:24.024Z,22.1
2018-07-17T16:40:14.109Z,22.1
2018-07-17T16:41:04.195Z,22.1
2018-07-17T16:41:54.197Z,22.1
2018-07-17T16:42:44.292Z,22
2018-07-17T16:43:34.095Z,22
2018-07-17T16:44:24.409Z,22
2018-07-17T16:45:14.464Z,21.9
2018-07-17T16:46:04.561Z,21.9
2018-07-17T16:46:54.590Z,21.9
2018-07-17T16:47:43.911Z,21.8
2018-07-17T16:48:34.476Z,21.8
2018-07-17T16:49:24.241Z,21.8
2018-07-17T16:50:14.867Z,21.8
2018-07-17T16:51:04.926Z,21.8
2018-07-17T16:51:54.428Z,21.7
2018-07-17T16:52:45.056Z,21.7
2018-07-17T16:53:34.551Z,21.7
2018-07-17T16:54:25.200Z,21.7
2018-07-17T16:55:14.995Z,21.7
2018-07-17T16:56:05.313Z,21.6
2018-07-17T16:56:55.109Z,21.6
2018-07-17T16:57:44.897Z,21.6
2018-07-17T16:58:35.249Z,21.6
2018-07-17T16:59:25.031Z,21.6
2018-07-17T17:00:15.644Z,21.6
2018-07-17T17:01:05.426Z,21.6
2018-07-17T17:01:55.774Z,21.6
2018-07-17T17:02:45.881Z,21.6
2018-07-17T17:03:35.875Z,21.6
2018-07-17T17:04:25.960Z,21.6
2018-07-17T17:05:15.248Z,21.6
2018-07-17T17:06:05.812Z,21.6
2018-07-17T17:06:56.129Z,21.6
2018-07-17T17:07:46.188Z,21.6
2018-07-17T17:08:36.264Z,21.6
2018-07-17T17:09:26.065Z,21.6
2018-07-17T17:10:16.134Z,21.6
2018-07-17T17:11:06.247Z,21.6
2018-07-17T17:11:55.975Z,21.5
2018-07-17T17:12:46.575Z,21.4
2018-07-17T17:13:36.662Z,21.4
2018-07-17T17:14:26.739Z,21.4
2018-07-17T17:15:16.833Z,21.4
2018-07-17T17:16:06.867Z,21.4